sensor_id;sensor_type;location;lat;lon;timestamp;temperature;humidity
27376;DHT22;14844;51.302;6.354;2023-12-22T00:01:00;7.00;99.90
27376;DHT22;14844;51.302;6.354;2023-12-22T00:03:38;7.00;99.90
27376;DHT22;14844;51.302;6.354;2023-12-22T00:06:07;7.20;99.90
27376;DHT22;14844;51.302;6.354;2023-12-22T00:08:32;7.20;99.90
27376;DHT22;14844;51.302;6.354;2023-12-22T00:10:58;7.40;99.90
27376;DHT22;14844;51.302;6.354;2023-12-22T00:13:24;7.60;99.90
27376;DHT22;14844;51.302;6.354;2023-12-22T00:15:50;7.70;99.90
27376;DHT22;14844;51.302;6.354;2023-12-22T00:18:22;7.80;99.90
27376;DHT22;14844;51.302;6.354;2023-12-22T00:20:48;8.00;99.90
27376;DHT22;14844;51.302;6.354;2023-12-22T00:23:13;7.90;99.90
27376;DHT22;14844;51.302;6.354;2023-12-22T00:25:39;8.10;99.90
27376;DHT22;14844;51.302;6.354;2023-12-22T00:28:05;8.20;99.90
27376;DHT22;14844;51.302;6.354;2023-12-22T00:30:30;8.20;99.90
27376;DHT22;14844;51.302;6.354;2023-12-22T00:32:56;8.40;99.90
27376;DHT22;14844;51.302;6.354;2023-12-22T00:35:21;8.20;99.90
27376;DHT22;14844;51.302;6.354;2023-12-22T00:37:47;8.40;99.90
27376;DHT22;14844;51.302;6.354;2023-12-22T00:40:12;8.40;99.90
27376;DHT22;14844;51.302;6.354;2023-12-22T00:42:38;8.50;99.90
27376;DHT22;14844;51.302;6.354;2023-12-22T00:45:04;8.40;99.90
27376;DHT22;14844;51.302;6.354;2023-12-22T00:47:29;8.30;99.90
27376;DHT22;14844;51.302;6.354;2023-12-22T00:49:55;8.40;99.90
27376;DHT22;14844;51.302;6.354;2023-12-22T00:52:21;8.50;99.90
27376;DHT22;14844;51.302;6.354;2023-12-22T00:54:46;8.40;99.90
27376;DHT22;14844;51.302;6.354;2023-12-22T00:57:12;8.50;99.90
27376;DHT22;14844;51.302;6.354;2023-12-22T00:59:38;8.40;99.90
27376;DHT22;14844;51.302;6.354;2023-12-22T01:02:07;8.50;99.90
27376;DHT22;14844;51.302;6.354;2023-12-22T01:04:33;8.40;99.90
27376;DHT22;14844;51.302;6.354;2023-12-22T01:06:58;8.50;99.90
27376;DHT22;14844;51.302;6.354;2023-12-22T01:09:24;8.50;99.90
27376;DHT22;14844;51.302;6.354;2023-12-22T01:11:49;8.50;99.90
27376;DHT22;14844;51.302;6.354;2023-12-22T01:14:14;8.60;99.90
27376;DHT22;14844;51.302;6.354;2023-12-22T01:16:40;8.50;99.90
27376;DHT22;14844;51.302;6.354;2023-12-22T01:19:05;8.60;99.90
27376;DHT22;14844;51.302;6.354;2023-12-22T01:21:31;8.60;99.90
27376;DHT22;14844;51.302;6.354;2023-12-22T01:23:56;8.60;99.90
27376;DHT22;14844;51.302;6.354;2023-12-22T01:26:24;8.50;99.90
27376;DHT22;14844;51.302;6.354;2023-12-22T01:28:49;8.60;99.90
27376;DHT22;14844;51.302;6.354;2023-12-22T01:31:15;8.50;99.90
27376;DHT22;14844;51.302;6.354;2023-12-22T01:33:40;8.50;99.90
27376;DHT22;14844;51.302;6.354;2023-12-22T01:36:05;8.50;99.90
27376;DHT22;14844;51.302;6.354;2023-12-22T01:38:31;8.60;99.90
27376;DHT22;14844;51.302;6.354;2023-12-22T01:40:56;8.70;99.90
27376;DHT22;14844;51.302;6.354;2023-12-22T01:43:22;9.00;99.90
27376;DHT22;14844;51.302;6.354;2023-12-22T01:45:50;8.60;99.90
27376;DHT22;14844;51.302;6.354;2023-12-22T01:48:16;8.60;99.90
27376;DHT22;14844;51.302;6.354;2023-12-22T01:50:42;8.50;99.90
27376;DHT22;14844;51.302;6.354;2023-12-22T01:53:09;8.70;99.90
27376;DHT22;14844;51.302;6.354;2023-12-22T01:55:35;8.60;99.90
27376;DHT22;14844;51.302;6.354;2023-12-22T01:58:00;9.40;99.90
27376;DHT22;14844;51.302;6.354;2023-12-22T02:00:26;8.90;99.90
27376;DHT22;14844;51.302;6.354;2023-12-22T02:02:51;9.00;99.90
27376;DHT22;14844;51.302;6.354;2023-12-22T02:05:17;8.90;99.90
27376;DHT22;14844;51.302;6.354;2023-12-22T02:07:43;8.80;99.90
27376;DHT22;14844;51.302;6.354;2023-12-22T02:10:09;8.60;99.90
27376;DHT22;14844;51.302;6.354;2023-12-22T02:12:35;8.60;99.90
27376;DHT22;14844;51.302;6.354;2023-12-22T02:15:01;8.80;99.90
27376;DHT22;14844;51.302;6.354;2023-12-22T02:17:29;9.00;99.90
27376;DHT22;14844;51.302;6.354;2023-12-22T02:19:56;8.80;99.90
27376;DHT22;14844;51.302;6.354;2023-12-22T02:22:23;8.80;99.90
27376;DHT22;14844;51.302;6.354;2023-12-22T02:24:48;8.90;99.90
27376;DHT22;14844;51.302;6.354;2023-12-22T02:27:15;9.00;99.90
27376;DHT22;14844;51.302;6.354;2023-12-22T02:29:49;8.90;99.90
27376;DHT22;14844;51.302;6.354;2023-12-22T02:32:21;8.90;99.90
27376;DHT22;14844;51.302;6.354;2023-12-22T02:34:49;9.00;99.90
27376;DHT22;14844;51.302;6.354;2023-12-22T02:37:16;9.10;99.90
27376;DHT22;14844;51.302;6.354;2023-12-22T02:39:41;9.00;99.90
27376;DHT22;14844;51.302;6.354;2023-12-22T02:42:08;9.10;99.90
27376;DHT22;14844;51.302;6.354;2023-12-22T02:44:34;9.10;99.90
27376;DHT22;14844;51.302;6.354;2023-12-22T02:46:59;9.00;99.90
27376;DHT22;14844;51.302;6.354;2023-12-22T02:49:25;9.10;99.90
27376;DHT22;14844;51.302;6.354;2023-12-22T02:51:50;8.90;99.90
27376;DHT22;14844;51.302;6.354;2023-12-22T02:54:16;9.10;99.90
27376;DHT22;14844;51.302;6.354;2023-12-22T02:56:41;9.00;99.90
27376;DHT22;14844;51.302;6.354;2023-12-22T02:59:08;9.00;99.90
27376;DHT22;14844;51.302;6.354;2023-12-22T03:01:34;8.80;99.90
27376;DHT22;14844;51.302;6.354;2023-12-22T03:04:00;8.90;99.90
27376;DHT22;14844;51.302;6.354;2023-12-22T03:06:25;8.90;99.90
27376;DHT22;14844;51.302;6.354;2023-12-22T03:08:51;9.00;99.90
27376;DHT22;14844;51.302;6.354;2023-12-22T03:11:16;8.90;99.90
27376;DHT22;14844;51.302;6.354;2023-12-22T03:13:41;9.00;99.90
27376;DHT22;14844;51.302;6.354;2023-12-22T03:16:10;9.20;99.90
27376;DHT22;14844;51.302;6.354;2023-12-22T03:18:37;9.00;99.90
27376;DHT22;14844;51.302;6.354;2023-12-22T03:21:03;9.10;99.90
27376;DHT22;14844;51.302;6.354;2023-12-22T03:23:28;9.10;99.90
27376;DHT22;14844;51.302;6.354;2023-12-22T03:25:54;9.20;99.90
27376;DHT22;14844;51.302;6.354;2023-12-22T03:28:19;9.20;99.90
27376;DHT22;14844;51.302;6.354;2023-12-22T03:30:44;9.30;99.90
27376;DHT22;14844;51.302;6.354;2023-12-22T03:33:10;9.40;99.90
27376;DHT22;14844;51.302;6.354;2023-12-22T03:35:35;9.50;99.90
27376;DHT22;14844;51.302;6.354;2023-12-22T03:38:01;9.40;99.90
27376;DHT22;14844;51.302;6.354;2023-12-22T03:40:26;9.60;99.90
27376;DHT22;14844;51.302;6.354;2023-12-22T03:42:52;9.50;99.90
27376;DHT22;14844;51.302;6.354;2023-12-22T03:45:17;9.60;99.90
27376;DHT22;14844;51.302;6.354;2023-12-22T03:47:42;9.60;99.90
27376;DHT22;14844;51.302;6.354;2023-12-22T03:50:08;9.40;99.90
27376;DHT22;14844;51.302;6.354;2023-12-22T03:52:34;9.50;99.90
27376;DHT22;14844;51.302;6.354;2023-12-22T03:54:59;9.50;99.90
27376;DHT22;14844;51.302;6.354;2023-12-22T03:57:24;9.40;99.90
27376;DHT22;14844;51.302;6.354;2023-12-22T03:59:50;9.50;99.90
27376;DHT22;14844;51.302;6.354;2023-12-22T04:02:15;9.40;99.90
27376;DHT22;14844;51.302;6.354;2023-12-22T04:04:41;9.50;99.90
27376;DHT22;14844;51.302;6.354;2023-12-22T04:07:06;9.80;99.90
27376;DHT22;14844;51.302;6.354;2023-12-22T04:09:32;9.50;99.90
27376;DHT22;14844;51.302;6.354;2023-12-22T04:11:57;9.60;99.90
27376;DHT22;14844;51.302;6.354;2023-12-22T04:14:22;9.60;99.90
27376;DHT22;14844;51.302;6.354;2023-12-22T04:16:48;9.70;99.90
27376;DHT22;14844;51.302;6.354;2023-12-22T04:19:13;9.70;99.90
27376;DHT22;14844;51.302;6.354;2023-12-22T04:21:39;9.60;99.90
27376;DHT22;14844;51.302;6.354;2023-12-22T04:24:04;9.70;99.90
27376;DHT22;14844;51.302;6.354;2023-12-22T04:26:30;9.80;99.90
27376;DHT22;14844;51.302;6.354;2023-12-22T04:28:55;9.70;99.90
27376;DHT22;14844;51.302;6.354;2023-12-22T04:31:21;9.70;99.90
27376;DHT22;14844;51.302;6.354;2023-12-22T04:33:46;9.70;99.90
27376;DHT22;14844;51.302;6.354;2023-12-22T04:36:12;9.70;99.90
27376;DHT22;14844;51.302;6.354;2023-12-22T04:38:37;9.70;99.90
27376;DHT22;14844;51.302;6.354;2023-12-22T04:41:03;9.80;99.90
27376;DHT22;14844;51.302;6.354;2023-12-22T04:43:28;9.90;99.90
27376;DHT22;14844;51.302;6.354;2023-12-22T04:45:54;9.90;99.90
27376;DHT22;14844;51.302;6.354;2023-12-22T04:48:19;9.90;99.90
27376;DHT22;14844;51.302;6.354;2023-12-22T04:50:45;10.00;99.90
27376;DHT22;14844;51.302;6.354;2023-12-22T04:53:10;10.00;99.90
27376;DHT22;14844;51.302;6.354;2023-12-22T04:55:36;10.10;99.90
27376;DHT22;14844;51.302;6.354;2023-12-22T04:58:01;10.10;99.90
27376;DHT22;14844;51.302;6.354;2023-12-22T05:00:26;10.10;99.90
27376;DHT22;14844;51.302;6.354;2023-12-22T05:02:52;10.30;99.90
27376;DHT22;14844;51.302;6.354;2023-12-22T05:05:17;10.30;99.90
27376;DHT22;14844;51.302;6.354;2023-12-22T05:07:43;10.40;99.90
27376;DHT22;14844;51.302;6.354;2023-12-22T05:10:08;10.30;99.90
27376;DHT22;14844;51.302;6.354;2023-12-22T05:12:34;10.50;99.90
27376;DHT22;14844;51.302;6.354;2023-12-22T05:14:59;10.40;99.90
27376;DHT22;14844;51.302;6.354;2023-12-22T05:17:25;10.40;99.90
27376;DHT22;14844;51.302;6.354;2023-12-22T05:19:50;10.70;99.90
27376;DHT22;14844;51.302;6.354;2023-12-22T05:22:16;10.50;99.90
27376;DHT22;14844;51.302;6.354;2023-12-22T05:24:41;10.50;99.90
27376;DHT22;14844;51.302;6.354;2023-12-22T05:27:07;10.50;99.90
27376;DHT22;14844;51.302;6.354;2023-12-22T05:29:33;10.60;99.90
27376;DHT22;14844;51.302;6.354;2023-12-22T05:31:58;10.70;99.90
27376;DHT22;14844;51.302;6.354;2023-12-22T05:34:25;10.70;99.90
27376;DHT22;14844;51.302;6.354;2023-12-22T05:36:50;10.60;99.90
27376;DHT22;14844;51.302;6.354;2023-12-22T05:39:16;10.70;99.90
27376;DHT22;14844;51.302;6.354;2023-12-22T05:41:41;10.70;99.90
27376;DHT22;14844;51.302;6.354;2023-12-22T05:44:07;10.80;99.90
27376;DHT22;14844;51.302;6.354;2023-12-22T05:46:36;11.00;99.90
27376;DHT22;14844;51.302;6.354;2023-12-22T05:49:06;10.80;99.90
27376;DHT22;14844;51.302;6.354;2023-12-22T05:51:38;11.00;99.90
27376;DHT22;14844;51.302;6.354;2023-12-22T05:54:05;10.80;99.90
27376;DHT22;14844;51.302;6.354;2023-12-22T05:56:30;10.90;99.90
27376;DHT22;14844;51.302;6.354;2023-12-22T05:58:56;11.20;99.90
27376;DHT22;14844;51.302;6.354;2023-12-22T06:01:21;11.10;99.90
27376;DHT22;14844;51.302;6.354;2023-12-22T06:03:47;11.00;99.90
27376;DHT22;14844;51.302;6.354;2023-12-22T06:06:13;11.10;99.90
27376;DHT22;14844;51.302;6.354;2023-12-22T06:08:39;11.20;99.90
27376;DHT22;14844;51.302;6.354;2023-12-22T06:11:05;11.00;99.90
27376;DHT22;14844;51.302;6.354;2023-12-22T06:13:30;11.00;99.90
27376;DHT22;14844;51.302;6.354;2023-12-22T06:15:56;11.10;99.90
27376;DHT22;14844;51.302;6.354;2023-12-22T06:18:22;11.30;99.90
27376;DHT22;14844;51.302;6.354;2023-12-22T06:20:47;11.20;99.90
27376;DHT22;14844;51.302;6.354;2023-12-22T06:23:13;11.20;99.90
27376;DHT22;14844;51.302;6.354;2023-12-22T06:25:38;11.60;99.90
27376;DHT22;14844;51.302;6.354;2023-12-22T06:28:04;11.20;99.90
27376;DHT22;14844;51.302;6.354;2023-12-22T06:30:29;11.20;99.90
27376;DHT22;14844;51.302;6.354;2023-12-22T06:32:55;11.20;99.90
27376;DHT22;14844;51.302;6.354;2023-12-22T06:35:21;11.10;99.90
27376;DHT22;14844;51.302;6.354;2023-12-22T06:37:49;11.00;99.90
27376;DHT22;14844;51.302;6.354;2023-12-22T06:40:14;10.80;99.90
27376;DHT22;14844;51.302;6.354;2023-12-22T06:42:40;10.70;99.90
27376;DHT22;14844;51.302;6.354;2023-12-22T06:45:05;10.70;99.90
27376;DHT22;14844;51.302;6.354;2023-12-22T06:47:31;10.70;99.90
27376;DHT22;14844;51.302;6.354;2023-12-22T06:49:57;11.20;99.90
27376;DHT22;14844;51.302;6.354;2023-12-22T06:52:22;10.70;99.90
27376;DHT22;14844;51.302;6.354;2023-12-22T06:54:47;10.90;99.90
27376;DHT22;14844;51.302;6.354;2023-12-22T06:57:13;10.90;99.90
27376;DHT22;14844;51.302;6.354;2023-12-22T06:59:39;10.80;99.90
27376;DHT22;14844;51.302;6.354;2023-12-22T07:02:04;10.70;99.90
27376;DHT22;14844;51.302;6.354;2023-12-22T07:07:32;10.80;99.90
27376;DHT22;14844;51.302;6.354;2023-12-22T07:09:58;10.60;99.90
27376;DHT22;14844;51.302;6.354;2023-12-22T07:12:23;10.60;99.90
27376;DHT22;14844;51.302;6.354;2023-12-22T07:14:49;10.60;99.90
27376;DHT22;14844;51.302;6.354;2023-12-22T07:17:14;10.10;99.90
27376;DHT22;14844;51.302;6.354;2023-12-22T07:19:40;10.00;99.90
27376;DHT22;14844;51.302;6.354;2023-12-22T07:22:06;10.00;99.90
27376;DHT22;14844;51.302;6.354;2023-12-22T07:24:32;10.00;99.90
27376;DHT22;14844;51.302;6.354;2023-12-22T07:26:57;9.90;99.90
27376;DHT22;14844;51.302;6.354;2023-12-22T07:29:23;10.10;99.90
27376;DHT22;14844;51.302;6.354;2023-12-22T07:31:48;10.10;99.90
27376;DHT22;14844;51.302;6.354;2023-12-22T07:34:14;10.20;99.90
27376;DHT22;14844;51.302;6.354;2023-12-22T07:36:40;10.30;99.90
27376;DHT22;14844;51.302;6.354;2023-12-22T07:39:05;10.20;99.90
27376;DHT22;14844;51.302;6.354;2023-12-22T07:41:32;10.20;99.90
27376;DHT22;14844;51.302;6.354;2023-12-22T07:43:57;10.30;99.90
27376;DHT22;14844;51.302;6.354;2023-12-22T07:46:23;10.40;99.90
27376;DHT22;14844;51.302;6.354;2023-12-22T07:48:49;10.40;99.90
27376;DHT22;14844;51.302;6.354;2023-12-22T07:51:14;10.50;99.90
27376;DHT22;14844;51.302;6.354;2023-12-22T07:53:40;10.40;99.90
27376;DHT22;14844;51.302;6.354;2023-12-22T07:56:05;10.60;99.90
27376;DHT22;14844;51.302;6.354;2023-12-22T07:58:31;10.70;99.90
27376;DHT22;14844;51.302;6.354;2023-12-22T08:00:58;10.80;99.90
27376;DHT22;14844;51.302;6.354;2023-12-22T08:03:24;10.80;99.90
27376;DHT22;14844;51.302;6.354;2023-12-22T08:05:49;10.80;99.90
27376;DHT22;14844;51.302;6.354;2023-12-22T08:08:15;10.80;99.90
27376;DHT22;14844;51.302;6.354;2023-12-22T08:10:41;11.00;99.90
27376;DHT22;14844;51.302;6.354;2023-12-22T08:13:06;11.00;99.90
27376;DHT22;14844;51.302;6.354;2023-12-22T08:15:32;11.00;99.90
27376;DHT22;14844;51.302;6.354;2023-12-22T08:17:57;11.00;99.90
27376;DHT22;14844;51.302;6.354;2023-12-22T08:20:23;11.10;99.90
27376;DHT22;14844;51.302;6.354;2023-12-22T08:22:48;11.10;99.90
27376;DHT22;14844;51.302;6.354;2023-12-22T08:25:14;11.20;99.90
27376;DHT22;14844;51.302;6.354;2023-12-22T08:27:40;11.10;99.90
27376;DHT22;14844;51.302;6.354;2023-12-22T08:30:06;11.40;99.90
27376;DHT22;14844;51.302;6.354;2023-12-22T08:32:31;11.70;99.90
27376;DHT22;14844;51.302;6.354;2023-12-22T08:34:57;11.50;99.90
27376;DHT22;14844;51.302;6.354;2023-12-22T08:37:22;11.40;99.90
27376;DHT22;14844;51.302;6.354;2023-12-22T08:39:48;11.40;99.90
27376;DHT22;14844;51.302;6.354;2023-12-22T08:42:14;11.60;99.90
27376;DHT22;14844;51.302;6.354;2023-12-22T08:44:39;11.60;99.90
27376;DHT22;14844;51.302;6.354;2023-12-22T08:47:05;11.40;99.90
27376;DHT22;14844;51.302;6.354;2023-12-22T08:49:30;11.60;99.90
27376;DHT22;14844;51.302;6.354;2023-12-22T08:51:55;11.60;99.90
27376;DHT22;14844;51.302;6.354;2023-12-22T08:54:21;11.80;99.90
27376;DHT22;14844;51.302;6.354;2023-12-22T08:56:47;11.90;99.90
27376;DHT22;14844;51.302;6.354;2023-12-22T08:59:12;11.80;99.90
27376;DHT22;14844;51.302;6.354;2023-12-22T09:01:37;11.80;99.90
27376;DHT22;14844;51.302;6.354;2023-12-22T09:04:03;11.80;99.90
27376;DHT22;14844;51.302;6.354;2023-12-22T09:06:28;12.10;99.90
27376;DHT22;14844;51.302;6.354;2023-12-22T09:08:54;11.90;99.90
27376;DHT22;14844;51.302;6.354;2023-12-22T09:11:19;12.00;99.90
27376;DHT22;14844;51.302;6.354;2023-12-22T09:13:46;12.10;99.90
27376;DHT22;14844;51.302;6.354;2023-12-22T09:16:11;12.10;99.90
27376;DHT22;14844;51.302;6.354;2023-12-22T09:18:40;12.10;99.90
27376;DHT22;14844;51.302;6.354;2023-12-22T09:21:05;12.20;99.90
27376;DHT22;14844;51.302;6.354;2023-12-22T09:23:32;12.10;99.90
27376;DHT22;14844;51.302;6.354;2023-12-22T09:25:57;12.20;99.90
27376;DHT22;14844;51.302;6.354;2023-12-22T09:28:23;12.30;99.90
27376;DHT22;14844;51.302;6.354;2023-12-22T09:30:49;12.40;99.90
27376;DHT22;14844;51.302;6.354;2023-12-22T09:33:14;12.20;99.90
27376;DHT22;14844;51.302;6.354;2023-12-22T09:35:40;12.30;99.90
27376;DHT22;14844;51.302;6.354;2023-12-22T09:38:07;12.40;99.90
27376;DHT22;14844;51.302;6.354;2023-12-22T09:40:34;12.40;99.90
27376;DHT22;14844;51.302;6.354;2023-12-22T09:43:01;12.40;99.90
27376;DHT22;14844;51.302;6.354;2023-12-22T09:45:27;12.50;99.90
27376;DHT22;14844;51.302;6.354;2023-12-22T09:47:53;12.50;99.90
27376;DHT22;14844;51.302;6.354;2023-12-22T09:50:20;12.40;99.90
27376;DHT22;14844;51.302;6.354;2023-12-22T09:52:46;12.50;99.90
27376;DHT22;14844;51.302;6.354;2023-12-22T09:55:12;12.50;99.90
27376;DHT22;14844;51.302;6.354;2023-12-22T09:57:38;12.50;99.90
27376;DHT22;14844;51.302;6.354;2023-12-22T10:00:06;12.50;99.90
27376;DHT22;14844;51.302;6.354;2023-12-22T10:02:33;12.60;99.90
27376;DHT22;14844;51.302;6.354;2023-12-22T10:04:59;12.60;99.90
27376;DHT22;14844;51.302;6.354;2023-12-22T10:07:24;12.70;99.90
27376;DHT22;14844;51.302;6.354;2023-12-22T10:09:50;11.10;99.90
27376;DHT22;14844;51.302;6.354;2023-12-22T10:12:17;12.50;99.90
27376;DHT22;14844;51.302;6.354;2023-12-22T10:14:44;14.30;99.90
27376;DHT22;14844;51.302;6.354;2023-12-22T10:17:09;15.30;99.90
27376;DHT22;14844;51.302;6.354;2023-12-22T10:19:35;16.10;99.90
27376;DHT22;14844;51.302;6.354;2023-12-22T10:22:00;16.90;99.90
27376;DHT22;14844;51.302;6.354;2023-12-22T10:24:39;17.40;99.90
27376;DHT22;14844;51.302;6.354;2023-12-22T10:27:05;17.90;99.90
27376;DHT22;14844;51.302;6.354;2023-12-22T10:29:31;18.30;99.90
27376;DHT22;14844;51.302;6.354;2023-12-22T10:31:57;18.70;99.90
27376;DHT22;14844;51.302;6.354;2023-12-22T10:34:23;19.00;99.90
27376;DHT22;14844;51.302;6.354;2023-12-22T10:36:49;19.30;99.90
27376;DHT22;14844;51.302;6.354;2023-12-22T10:39:14;19.60;99.90
27376;DHT22;14844;51.302;6.354;2023-12-22T10:41:40;19.80;99.90
27376;DHT22;14844;51.302;6.354;2023-12-22T10:44:05;20.00;99.90
27376;DHT22;14844;51.302;6.354;2023-12-22T10:46:31;20.20;99.90
27376;DHT22;14844;51.302;6.354;2023-12-22T10:48:59;20.40;99.90
27376;DHT22;14844;51.302;6.354;2023-12-22T10:51:24;20.50;99.90
27376;DHT22;14844;51.302;6.354;2023-12-22T10:53:51;20.70;99.90
27376;DHT22;14844;51.302;6.354;2023-12-22T10:56:17;20.80;99.90
27376;DHT22;14844;51.302;6.354;2023-12-22T10:58:42;20.90;99.90
27376;DHT22;14844;51.302;6.354;2023-12-22T11:01:08;21.00;99.90
27376;DHT22;14844;51.302;6.354;2023-12-22T11:03:34;21.00;99.90
27376;DHT22;14844;51.302;6.354;2023-12-22T11:06:01;21.00;99.90
27376;DHT22;14844;51.302;6.354;2023-12-22T11:08:27;21.10;99.90
27376;DHT22;14844;51.302;6.354;2023-12-22T11:10:54;21.10;99.90
27376;DHT22;14844;51.302;6.354;2023-12-22T11:13:22;21.20;99.90
27376;DHT22;14844;51.302;6.354;2023-12-22T11:15:49;21.30;99.90
27376;DHT22;14844;51.302;6.354;2023-12-22T11:18:15;21.30;99.90
27376;DHT22;14844;51.302;6.354;2023-12-22T11:20:42;21.30;99.90
27376;DHT22;14844;51.302;6.354;2023-12-22T11:23:09;21.40;99.90
27376;DHT22;14844;51.302;6.354;2023-12-22T11:25:35;21.50;99.90
27376;DHT22;14844;51.302;6.354;2023-12-22T11:28:02;21.50;99.90
27376;DHT22;14844;51.302;6.354;2023-12-22T11:30:29;21.50;99.90
27376;DHT22;14844;51.302;6.354;2023-12-22T11:32:56;21.60;99.90
27376;DHT22;14844;51.302;6.354;2023-12-22T11:35:23;21.60;99.90
27376;DHT22;14844;51.302;6.354;2023-12-22T11:37:49;21.60;99.90
27376;DHT22;14844;51.302;6.354;2023-12-22T11:40:15;21.70;99.90
27376;DHT22;14844;51.302;6.354;2023-12-22T11:42:45;21.70;99.90
27376;DHT22;14844;51.302;6.354;2023-12-22T11:45:11;21.70;99.90
27376;DHT22;14844;51.302;6.354;2023-12-22T11:47:38;21.80;99.90
27376;DHT22;14844;51.302;6.354;2023-12-22T11:50:09;21.80;99.90
27376;DHT22;14844;51.302;6.354;2023-12-22T11:52:35;21.80;99.90
27376;DHT22;14844;51.302;6.354;2023-12-22T11:55:00;21.80;99.90
27376;DHT22;14844;51.302;6.354;2023-12-22T11:57:32;21.80;99.90
27376;DHT22;14844;51.302;6.354;2023-12-22T12:00:02;21.90;99.90
27376;DHT22;14844;51.302;6.354;2023-12-22T12:02:30;21.90;99.90
27376;DHT22;14844;51.302;6.354;2023-12-22T12:04:58;22.00;99.90
27376;DHT22;14844;51.302;6.354;2023-12-22T12:07:45;22.00;99.90
27376;DHT22;14844;51.302;6.354;2023-12-22T12:10:13;21.90;99.90
27376;DHT22;14844;51.302;6.354;2023-12-22T12:13:11;22.00;99.90
27376;DHT22;14844;51.302;6.354;2023-12-22T12:15:38;22.00;99.90
27376;DHT22;14844;51.302;6.354;2023-12-22T12:18:04;22.10;99.90
27376;DHT22;14844;51.302;6.354;2023-12-22T12:20:31;22.10;99.90
27376;DHT22;14844;51.302;6.354;2023-12-22T12:22:57;22.10;99.90
27376;DHT22;14844;51.302;6.354;2023-12-22T12:25:23;22.10;99.90
27376;DHT22;14844;51.302;6.354;2023-12-22T12:28:05;22.10;99.90
27376;DHT22;14844;51.302;6.354;2023-12-22T12:30:32;22.10;99.90
27376;DHT22;14844;51.302;6.354;2023-12-22T12:33:11;22.20;99.90
27376;DHT22;14844;51.302;6.354;2023-12-22T12:35:41;22.10;99.90
27376;DHT22;14844;51.302;6.354;2023-12-22T12:38:09;22.20;99.90
27376;DHT22;14844;51.302;6.354;2023-12-22T12:40:36;22.20;99.90
27376;DHT22;14844;51.302;6.354;2023-12-22T12:43:04;22.30;99.90
27376;DHT22;14844;51.302;6.354;2023-12-22T12:45:29;22.30;99.90
27376;DHT22;14844;51.302;6.354;2023-12-22T12:47:59;22.30;99.90
27376;DHT22;14844;51.302;6.354;2023-12-22T12:50:25;22.30;99.90
27376;DHT22;14844;51.302;6.354;2023-12-22T12:52:52;22.30;99.90
27376;DHT22;14844;51.302;6.354;2023-12-22T12:55:20;22.30;99.90
27376;DHT22;14844;51.302;6.354;2023-12-22T12:57:48;22.30;99.90
27376;DHT22;14844;51.302;6.354;2023-12-22T13:00:16;22.30;99.90
27376;DHT22;14844;51.302;6.354;2023-12-22T13:02:42;22.30;99.90
27376;DHT22;14844;51.302;6.354;2023-12-22T13:05:08;22.30;99.90
27376;DHT22;14844;51.302;6.354;2023-12-22T13:07:35;22.30;99.90
27376;DHT22;14844;51.302;6.354;2023-12-22T13:10:00;22.30;99.90
27376;DHT22;14844;51.302;6.354;2023-12-22T13:12:26;22.30;99.90
27376;DHT22;14844;51.302;6.354;2023-12-22T13:14:52;22.30;99.90
27376;DHT22;14844;51.302;6.354;2023-12-22T13:17:17;22.30;99.90
27376;DHT22;14844;51.302;6.354;2023-12-22T13:19:43;22.30;99.90
27376;DHT22;14844;51.302;6.354;2023-12-22T13:22:09;22.40;99.90
27376;DHT22;14844;51.302;6.354;2023-12-22T13:24:35;22.40;99.90
27376;DHT22;14844;51.302;6.354;2023-12-22T13:27:04;22.40;99.90
27376;DHT22;14844;51.302;6.354;2023-12-22T13:29:51;22.40;99.90
27376;DHT22;14844;51.302;6.354;2023-12-22T13:32:20;22.40;99.90
27376;DHT22;14844;51.302;6.354;2023-12-22T13:34:53;22.50;99.90
27376;DHT22;14844;51.302;6.354;2023-12-22T13:37:20;22.40;99.90
27376;DHT22;14844;51.302;6.354;2023-12-22T13:39:46;22.40;99.90
27376;DHT22;14844;51.302;6.354;2023-12-22T13:42:18;22.40;99.90
27376;DHT22;14844;51.302;6.354;2023-12-22T13:44:47;22.40;99.90
27376;DHT22;14844;51.302;6.354;2023-12-22T13:47:18;22.40;99.90
27376;DHT22;14844;51.302;6.354;2023-12-22T13:49:45;22.40;99.90
27376;DHT22;14844;51.302;6.354;2023-12-22T13:52:26;22.40;99.90
27376;DHT22;14844;51.302;6.354;2023-12-22T13:54:52;22.30;99.90
27376;DHT22;14844;51.302;6.354;2023-12-22T13:57:21;22.40;99.90
27376;DHT22;14844;51.302;6.354;2023-12-22T13:59:50;22.40;99.90
27376;DHT22;14844;51.302;6.354;2023-12-22T14:02:20;22.40;99.90
27376;DHT22;14844;51.302;6.354;2023-12-22T14:04:45;22.30;99.90
27376;DHT22;14844;51.302;6.354;2023-12-22T14:07:11;22.30;99.90
27376;DHT22;14844;51.302;6.354;2023-12-22T14:09:36;22.30;99.90
27376;DHT22;14844;51.302;6.354;2023-12-22T14:12:03;22.40;99.90
27376;DHT22;14844;51.302;6.354;2023-12-22T14:14:30;22.40;99.90
27376;DHT22;14844;51.302;6.354;2023-12-22T14:16:56;22.40;99.90
27376;DHT22;14844;51.302;6.354;2023-12-22T14:19:22;22.40;99.90
27376;DHT22;14844;51.302;6.354;2023-12-22T14:21:48;22.40;99.90
27376;DHT22;14844;51.302;6.354;2023-12-22T14:24:13;22.30;99.90
27376;DHT22;14844;51.302;6.354;2023-12-22T14:26:55;22.30;99.90
27376;DHT22;14844;51.302;6.354;2023-12-22T14:29:21;22.30;99.90
27376;DHT22;14844;51.302;6.354;2023-12-22T14:31:49;22.30;99.90
27376;DHT22;14844;51.302;6.354;2023-12-22T14:34:15;22.30;99.90
27376;DHT22;14844;51.302;6.354;2023-12-22T14:36:40;22.40;99.90
27376;DHT22;14844;51.302;6.354;2023-12-22T14:39:06;22.30;99.90
27376;DHT22;14844;51.302;6.354;2023-12-22T14:41:31;22.30;99.90
27376;DHT22;14844;51.302;6.354;2023-12-22T14:43:57;22.30;99.90
27376;DHT22;14844;51.302;6.354;2023-12-22T14:46:22;22.30;99.90
27376;DHT22;14844;51.302;6.354;2023-12-22T14:48:48;22.30;99.90
27376;DHT22;14844;51.302;6.354;2023-12-22T14:51:13;22.30;99.90
27376;DHT22;14844;51.302;6.354;2023-12-22T14:53:39;22.30;99.90
27376;DHT22;14844;51.302;6.354;2023-12-22T14:56:05;22.30;99.90
27376;DHT22;14844;51.302;6.354;2023-12-22T14:58:31;22.20;99.90
27376;DHT22;14844;51.302;6.354;2023-12-22T15:00:57;22.20;99.90
27376;DHT22;14844;51.302;6.354;2023-12-22T15:03:23;22.20;99.90
27376;DHT22;14844;51.302;6.354;2023-12-22T15:05:48;22.20;99.90
27376;DHT22;14844;51.302;6.354;2023-12-22T15:08:14;22.20;99.90
27376;DHT22;14844;51.302;6.354;2023-12-22T15:10:39;22.20;99.90
27376;DHT22;14844;51.302;6.354;2023-12-22T15:13:05;22.20;99.90
27376;DHT22;14844;51.302;6.354;2023-12-22T15:15:30;22.10;99.90
27376;DHT22;14844;51.302;6.354;2023-12-22T15:17:56;22.10;99.90
27376;DHT22;14844;51.302;6.354;2023-12-22T15:20:21;22.10;99.90
27376;DHT22;14844;51.302;6.354;2023-12-22T15:22:47;22.10;99.90
27376;DHT22;14844;51.302;6.354;2023-12-22T15:25:12;22.00;99.90
27376;DHT22;14844;51.302;6.354;2023-12-22T15:27:38;22.00;99.90
27376;DHT22;14844;51.302;6.354;2023-12-22T15:30:05;21.90;99.90
27376;DHT22;14844;51.302;6.354;2023-12-22T15:32:30;21.90;99.90